createdAt,value
2023-05-19T00:00:50.490Z,72.38
2023-05-19T00:01:48.200Z,72.58
2023-05-19T00:02:48.351Z,72.89
2023-05-19T00:03:48.158Z,72.38
2023-05-19T00:04:48.172Z,72.48
2023-05-19T00:05:48.596Z,72.48
2023-05-19T00:06:48.176Z,72.78
2023-05-19T00:07:48.144Z,72.48
2023-05-19T00:08:48.124Z,72.89
2023-05-19T00:09:48.115Z,72.68
2023-05-19T00:10:48.128Z,72.68
2023-05-19T00:11:48.113Z,72.68
2023-05-19T00:12:48.194Z,72.68
2023-05-19T00:13:48.110Z,72.48
2023-05-19T00:14:48.090Z,72.48
2023-05-19T00:15:48.138Z,72.89
2023-05-19T00:16:48.063Z,72.27
2023-05-19T00:17:48.092Z,72.68
2023-05-19T00:18:48.065Z,72.89
2023-05-19T00:19:48.160Z,72.89
2023-05-19T00:20:48.043Z,72.48
2023-05-19T00:21:48.067Z,73.19
2023-05-19T00:22:48.038Z,72.68
2023-05-19T00:23:48.017Z,72.48
2023-05-19T00:24:48.012Z,73.19
2023-05-19T00:25:48.015Z,73.19
2023-05-19T00:26:48.004Z,72.68
2023-05-19T00:27:47.999Z,72.78
2023-05-19T00:28:47.975Z,72.68
2023-05-19T00:29:47.997Z,72.99
2023-05-19T00:30:47.963Z,73.23
2023-05-19T00:31:48.017Z,72.99
2023-05-19T00:32:48.003Z,72.89
2023-05-19T00:33:47.948Z,72.82
2023-05-19T00:34:47.956Z,73.19
2023-05-19T00:35:48.108Z,72.92
2023-05-19T00:36:47.934Z,73.10
2023-05-19T00:37:47.922Z,72.78
2023-05-19T00:38:47.912Z,72.38
2023-05-19T00:39:47.912Z,72.78
2023-05-19T00:40:47.935Z,72.78
2023-05-19T00:41:47.895Z,73.50
2023-05-19T00:42:47.901Z,73.13
2023-05-19T00:43:47.874Z,73.54
2023-05-19T00:44:47.876Z,74.12
2023-05-19T00:45:47.862Z,74.05
2023-05-19T00:46:47.946Z,73.33
2023-05-19T00:47:47.872Z,73.54
2023-05-19T00:48:47.845Z,72.61
2023-05-19T00:49:47.840Z,73.23
2023-05-19T00:50:47.846Z,73.44
2023-05-19T00:51:47.848Z,73.44
2023-05-19T00:52:47.814Z,73.02
2023-05-19T00:53:47.803Z,73.44
2023-05-19T00:54:47.810Z,73.13
2023-05-19T00:55:47.800Z,73.13
2023-05-19T00:56:47.801Z,73.13
2023-05-19T00:57:47.791Z,73.78
2023-05-19T00:58:47.783Z,74.08
2023-05-19T00:59:47.764Z,73.54
2023-05-19T01:00:47.758Z,73.78
2023-05-19T01:01:47.747Z,74.08
2023-05-19T01:02:47.845Z,74.80
2023-05-19T01:03:47.808Z,74.29
2023-05-19T01:04:47.734Z,74.29
2023-05-19T01:05:47.713Z,74.19
2023-05-19T01:06:47.720Z,74.29
2023-05-19T01:07:47.721Z,74.08
2023-05-19T01:08:47.717Z,74.43
2023-05-19T01:09:47.692Z,74.63
2023-05-19T01:10:47.686Z,74.94
2023-05-19T01:11:47.681Z,74.43
2023-05-19T01:12:47.664Z,75.35
2023-05-19T01:13:47.690Z,74.94
2023-05-19T01:14:47.662Z,75.04
2023-05-19T01:15:47.649Z,75.25
2023-05-19T01:16:47.717Z,74.74
2023-05-19T01:17:47.700Z,74.84
2023-05-19T01:18:47.724Z,75.15
2023-05-19T01:19:47.622Z,75.45
2023-05-19T01:20:47.616Z,75.25
2023-05-19T01:21:47.609Z,75.56
2023-05-19T01:22:47.622Z,75.38
2023-05-19T01:23:48.593Z,75.45
2023-05-19T01:24:47.583Z,75.97
2023-05-19T01:25:47.576Z,75.25
2023-05-19T01:26:47.575Z,75.38
2023-05-19T01:27:47.617Z,75.18
2023-05-19T01:28:48.556Z,75.38
2023-05-19T01:29:47.557Z,75.18
2023-05-19T01:30:47.557Z,75.70
2023-05-19T01:31:47.588Z,75.38
2023-05-19T01:32:47.559Z,76.72
2023-05-19T01:33:47.555Z,75.59
2023-05-19T01:34:47.533Z,76.51
2023-05-19T01:35:47.520Z,75.70
2023-05-19T01:36:47.513Z,76.10
2023-05-19T01:37:47.497Z,76.10
2023-05-19T01:38:47.517Z,76.00
2023-05-19T01:39:47.513Z,76.82
2023-05-19T01:40:47.484Z,77.23
2023-05-19T01:41:47.494Z,76.82
2023-05-19T01:42:47.467Z,77.17
2023-05-19T01:43:48.537Z,77.03
2023-05-19T01:44:47.465Z,76.21
2023-05-19T01:45:47.473Z,76.21
2023-05-19T01:46:47.519Z,77.34
2023-05-19T01:47:47.496Z,77.13
2023-05-19T01:48:47.436Z,77.06
2023-05-19T01:49:47.451Z,77.06
2023-05-19T01:50:47.417Z,76.76
2023-05-19T01:51:47.419Z,76.97
2023-05-19T01:52:47.418Z,76.86
2023-05-19T01:53:47.398Z,76.35
2023-05-19T01:54:47.412Z,76.65
2023-05-19T01:55:47.391Z,76.55
2023-05-19T01:56:47.398Z,76.55
2023-05-19T01:57:47.378Z,76.35
2023-05-19T01:58:47.387Z,76.97
2023-05-19T01:59:47.374Z,77.27
2023-05-19T02:00:47.377Z,77.06
2023-05-19T02:01:47.418Z,77.06
2023-05-19T02:02:47.384Z,77.27
2023-05-19T02:03:47.329Z,77.31
2023-05-19T02:04:47.348Z,77.20
2023-05-19T02:05:47.328Z,77.37
2023-05-19T02:06:47.318Z,77.68
2023-05-19T02:07:47.303Z,77.27
2023-05-19T02:08:47.304Z,77.48
2023-05-19T02:09:47.280Z,77.58
2023-05-19T02:10:47.293Z,77.20
2023-05-19T02:11:47.278Z,77.00
2023-05-19T02:12:47.258Z,77.00
2023-05-19T02:13:48.272Z,77.72
2023-05-19T02:14:47.256Z,77.72
2023-05-19T02:15:47.298Z,77.72
2023-05-19T02:16:47.250Z,78.03
2023-05-19T02:17:47.348Z,78.33
2023-05-19T02:18:47.285Z,78.23
2023-05-19T02:19:47.238Z,78.33
2023-05-19T02:20:47.230Z,78.44
2023-05-19T02:21:47.209Z,77.92
2023-05-19T02:22:47.197Z,77.31
2023-05-19T02:23:47.189Z,77.72
2023-05-19T02:24:47.179Z,77.41
2023-05-19T02:25:47.170Z,78.03
2023-05-19T02:26:47.198Z,78.37
2023-05-19T02:27:47.167Z,78.99
2023-05-19T02:28:47.160Z,78.68
2023-05-19T02:29:47.150Z,78.47
2023-05-19T02:30:47.149Z,78.58
2023-05-19T02:31:47.175Z,78.37
2023-05-19T02:32:47.287Z,78.47
2023-05-19T02:33:47.121Z,78.68
2023-05-19T02:34:47.119Z,78.47
2023-05-19T02:35:47.106Z,78.47
2023-05-19T02:36:47.115Z,78.68
2023-05-19T02:37:47.110Z,78.68
2023-05-19T02:38:47.084Z,78.72
2023-05-19T02:39:47.101Z,78.72
2023-05-19T02:40:47.086Z,78.78
2023-05-19T02:41:47.071Z,78.41
2023-05-19T02:42:47.085Z,78.82
2023-05-19T02:43:47.050Z,78.51
2023-05-19T02:44:47.049Z,79.33
2023-05-19T02:45:47.048Z,79.64
2023-05-19T02:46:47.170Z,80.26
2023-05-19T02:47:47.069Z,79.95
2023-05-19T02:48:47.026Z,79.44
2023-05-19T02:49:47.009Z,79.13
2023-05-19T02:50:48.001Z,79.54
2023-05-19T02:51:47.007Z,79.95
2023-05-19T02:52:46.987Z,80.30
2023-05-19T02:53:46.978Z,80.16
2023-05-19T02:54:46.971Z,80.91
2023-05-19T02:55:46.983Z,80.30
2023-05-19T02:56:46.965Z,80.16
2023-05-19T02:57:46.953Z,79.47
2023-05-19T02:58:46.950Z,79.68
2023-05-19T02:59:46.949Z,79.99
2023-05-19T03:00:46.957Z,79.85
2023-05-19T03:01:46.944Z,79.85
2023-05-19T03:02:47.006Z,80.61
2023-05-19T03:03:47.049Z,80.40
2023-05-19T03:04:46.905Z,80.81
2023-05-19T03:05:46.906Z,80.40
2023-05-19T03:06:46.915Z,80.09
2023-05-19T03:07:46.885Z,80.30
2023-05-19T03:08:46.885Z,80.91
2023-05-19T03:09:46.869Z,80.09
2023-05-19T03:10:46.867Z,80.51
2023-05-19T03:11:46.868Z,80.19
2023-05-19T03:12:46.860Z,79.99
2023-05-19T03:13:46.855Z,79.58
2023-05-19T03:14:46.850Z,79.47
2023-05-19T03:15:46.836Z,80.81
2023-05-19T03:16:46.985Z,81.33
2023-05-19T03:17:46.932Z,80.51
2023-05-19T03:18:46.852Z,80.81
2023-05-19T03:19:46.810Z,81.47
2023-05-19T03:20:46.793Z,81.47
2023-05-19T03:21:46.820Z,81.05
2023-05-19T03:22:46.794Z,81.67
2023-05-19T03:23:46.779Z,81.26
2023-05-19T03:24:46.783Z,81.16
2023-05-19T03:25:46.778Z,81.16
2023-05-19T03:26:46.777Z,81.37
2023-05-19T03:27:46.759Z,81.47
2023-05-19T03:28:46.751Z,81.16
2023-05-19T03:29:46.751Z,81.47
2023-05-19T03:30:46.732Z,81.05
2023-05-19T03:31:46.726Z,81.26
2023-05-19T03:32:46.824Z,81.37
2023-05-19T03:33:46.708Z,82.40
2023-05-19T03:34:46.704Z,81.77
2023-05-19T03:35:46.742Z,81.02
2023-05-19T03:36:46.701Z,81.77
2023-05-19T03:37:46.708Z,82.40
2023-05-19T03:38:46.690Z,83.22
2023-05-19T03:39:46.698Z,83.87
2023-05-19T03:40:46.695Z,83.77
2023-05-19T03:41:46.688Z,83.01
2023-05-19T03:42:46.657Z,83.01
2023-05-19T03:43:46.653Z,82.60
2023-05-19T03:44:46.641Z,82.50
2023-05-19T03:45:46.694Z,82.50
2023-05-19T03:46:46.640Z,81.98
2023-05-19T03:47:46.796Z,82.91
2023-05-19T03:48:46.617Z,82.29
2023-05-19T03:49:46.611Z,82.50
2023-05-19T03:50:46.605Z,83.42
2023-05-19T03:51:46.772Z,83.67
2023-05-19T03:52:46.654Z,83.77
2023-05-19T03:53:46.589Z,83.98
2023-05-19T03:54:46.613Z,84.39
2023-05-19T03:55:46.571Z,83.98
2023-05-19T03:56:46.573Z,83.98
2023-05-19T03:57:46.565Z,83.98
2023-05-19T03:58:46.548Z,84.64
2023-05-19T03:59:46.701Z,84.74
2023-05-19T04:00:46.540Z,84.74
2023-05-19T04:01:46.534Z,85.01
2023-05-19T04:02:46.625Z,84.59
2023-05-19T04:03:46.651Z,84.70
2023-05-19T04:04:46.609Z,85.15
2023-05-19T04:05:46.569Z,85.36
2023-05-19T04:06:46.505Z,85.05
2023-05-19T04:07:46.507Z,85.15
2023-05-19T04:08:46.495Z,85.83
2023-05-19T04:09:46.506Z,85.67
2023-05-19T04:10:46.498Z,85.67
2023-05-19T04:11:46.475Z,85.87
2023-05-19T04:12:46.458Z,85.77
2023-05-19T04:13:46.459Z,85.57
2023-05-19T04:14:46.482Z,85.11
2023-05-19T04:15:46.481Z,85.25
2023-05-19T04:16:46.440Z,85.25
2023-05-19T04:17:46.496Z,85.01
2023-05-19T04:18:46.657Z,85.46
2023-05-19T04:19:46.436Z,85.77
2023-05-19T04:20:46.429Z,86.08
2023-05-19T04:21:46.417Z,86.12
2023-05-19T04:22:46.405Z,86.02
2023-05-19T04:23:46.439Z,86.63
2023-05-19T04:24:46.387Z,86.84
2023-05-19T04:25:46.391Z,87.15
2023-05-19T04:26:46.382Z,86.43
2023-05-19T04:27:46.371Z,86.63
2023-05-19T04:28:46.372Z,86.32
2023-05-19T04:29:46.360Z,86.08
2023-05-19T04:30:46.463Z,86.08
2023-05-19T04:31:46.388Z,85.87
2023-05-19T04:32:46.361Z,85.67
2023-05-19T04:33:46.336Z,85.77
2023-05-19T04:34:46.360Z,85.57
2023-05-19T04:35:46.346Z,85.05
2023-05-19T04:36:46.321Z,84.91
2023-05-19T04:37:46.316Z,85.11
2023-05-19T04:38:46.303Z,84.91
2023-05-19T04:39:46.293Z,84.49
2023-05-19T04:40:46.312Z,83.87
2023-05-19T04:41:46.276Z,83.87
2023-05-19T04:42:46.295Z,83.67
2023-05-19T04:43:46.276Z,83.77
2023-05-19T04:44:46.277Z,83.56
2023-05-19T04:45:46.252Z,83.15
2023-05-19T04:46:46.286Z,83.77
2023-05-19T04:47:46.279Z,83.87
2023-05-19T04:48:46.233Z,83.98
2023-05-19T04:49:46.223Z,83.87
2023-05-19T04:50:46.216Z,83.56
2023-05-19T04:51:46.256Z,83.67
2023-05-19T04:52:46.221Z,83.36
2023-05-19T04:53:46.214Z,83.47
2023-05-19T04:54:46.200Z,82.74
2023-05-19T04:55:46.199Z,83.01
2023-05-19T04:56:46.194Z,83.12
2023-05-19T04:57:46.199Z,83.26
2023-05-19T04:58:46.189Z,84.19
2023-05-19T04:59:46.168Z,84.91
2023-05-19T05:00:46.156Z,85.31
2023-05-19T05:01:46.214Z,85.87
2023-05-19T05:02:46.259Z,85.67
2023-05-19T05:03:46.245Z,85.87
2023-05-19T05:04:46.125Z,85.63
2023-05-19T05:05:46.132Z,85.52
2023-05-19T05:06:46.109Z,85.22
2023-05-19T05:07:46.117Z,84.56
2023-05-19T05:08:46.127Z,84.77
2023-05-19T05:09:46.100Z,84.25
2023-05-19T05:10:46.090Z,84.05
2023-05-19T05:11:46.092Z,84.25
2023-05-19T05:12:46.084Z,84.25
2023-05-19T05:13:46.076Z,84.45
2023-05-19T05:14:46.117Z,84.21
2023-05-19T05:15:46.055Z,84.52
2023-05-19T05:16:46.120Z,84.52
2023-05-19T05:17:46.071Z,84.45
2023-05-19T05:18:46.061Z,84.52
2023-05-19T05:19:46.051Z,84.48
2023-05-19T05:20:46.019Z,84.11
2023-05-19T05:21:46.019Z,83.65
2023-05-19T05:22:46.008Z,83.90
2023-05-19T05:23:46.017Z,83.59
2023-05-19T05:24:46.006Z,83.55
2023-05-19T05:25:45.989Z,83.65
2023-05-19T05:26:45.989Z,83.45
2023-05-19T05:27:45.975Z,83.55
2023-05-19T05:28:45.972Z,83.83
2023-05-19T05:29:45.957Z,84.03
2023-05-19T05:30:46.005Z,83.31
2023-05-19T05:31:45.953Z,83.31
2023-05-19T05:32:45.996Z,83.55
2023-05-19T05:33:45.998Z,84.03
2023-05-19T05:34:45.952Z,84.13
2023-05-19T05:35:45.932Z,83.11
2023-05-19T05:36:45.909Z,83.83
2023-05-19T05:37:45.924Z,83.20
2023-05-19T05:38:45.906Z,83.11
2023-05-19T05:39:45.900Z,83.06
2023-05-19T05:40:45.889Z,83.17
2023-05-19T05:41:45.878Z,82.96
2023-05-19T05:42:45.882Z,82.45
2023-05-19T05:43:45.881Z,82.86
2023-05-19T05:44:45.854Z,82.34
2023-05-19T05:45:45.863Z,82.34
2023-05-19T05:46:45.858Z,81.59
2023-05-19T05:47:45.916Z,81.59
2023-05-19T05:48:45.836Z,81.55
2023-05-19T05:49:45.819Z,81.34
2023-05-19T05:50:45.849Z,80.90
2023-05-19T05:51:54.712Z,80.69
2023-05-19T05:52:47.812Z,80.76
2023-05-19T05:53:45.804Z,79.93
2023-05-19T05:54:45.791Z,79.69
2023-05-19T05:55:45.804Z,79.08
2023-05-19T05:56:45.785Z,78.63
2023-05-19T05:57:45.774Z,80.27
2023-05-19T05:58:45.793Z,80.40
2023-05-19T05:59:45.769Z,79.85
2023-05-19T06:00:45.778Z,78.08
2023-05-19T06:01:45.756Z,76.91
2023-05-19T06:02:45.848Z,76.06
2023-05-19T06:03:46.002Z,76.03
2023-05-19T06:04:45.723Z,74.90
2023-05-19T06:05:45.814Z,74.66
2023-05-19T06:06:45.723Z,73.10
2023-05-19T06:07:45.712Z,72.45
2023-05-19T06:08:45.730Z,72.34
2023-05-19T06:09:45.684Z,70.89
2023-05-19T06:10:47.376Z,71.70
2023-05-19T06:11:46.702Z,70.65
2023-05-19T06:12:45.683Z,71.19
2023-05-19T06:13:46.475Z,69.93
2023-05-19T06:14:45.709Z,69.29
2023-05-19T06:15:45.914Z,69.16
2023-05-19T06:16:45.675Z,67.40
2023-05-19T06:17:45.689Z,66.66
2023-05-19T06:18:45.886Z,65.61
2023-05-19T06:19:45.623Z,64.64
2023-05-19T06:20:45.625Z,64.17
2023-05-19T06:21:45.627Z,63.43
2023-05-19T06:22:45.605Z,58.94
2023-05-19T06:23:45.628Z,58.31
2023-05-19T06:24:45.617Z,59.90
2023-05-19T06:25:46.488Z,60.38
2023-05-19T06:26:45.616Z,57.62
2023-05-19T06:27:45.584Z,58.40
2023-05-19T06:28:46.475Z,56.78
2023-05-19T06:29:45.581Z,53.47
2023-05-19T06:30:45.550Z,55.67
2023-05-19T06:31:45.570Z,57.87
2023-05-19T06:32:45.613Z,54.71
2023-05-19T06:33:45.552Z,55.52
2023-05-19T06:34:45.537Z,54.56
2023-05-19T06:35:45.557Z,54.56
2023-05-19T06:36:45.521Z,52.34
2023-05-19T06:37:45.516Z,52.31
2023-05-19T06:38:45.521Z,52.74
2023-05-19T06:39:45.490Z,51.20
2023-05-19T06:40:45.514Z,51.84
2023-05-19T06:41:45.473Z,51.13
2023-05-19T06:42:45.491Z,51.33
2023-05-19T06:43:45.494Z,52.24
2023-05-19T06:44:45.477Z,50.62
2023-05-19T06:45:45.449Z,52.24
2023-05-19T06:46:45.524Z,50.93
2023-05-19T06:47:45.502Z,52.72
2023-05-19T06:48:45.445Z,51.40
2023-05-19T06:49:45.431Z,52.29
2023-05-19T06:50:46.437Z,49.87
2023-05-19T06:51:45.427Z,52.17
2023-05-19T06:52:45.415Z,51.97
2023-05-19T06:53:45.417Z,50.93
2023-05-19T06:54:45.413Z,50.10
2023-05-19T06:55:57.899Z,49.27
2023-05-19T06:56:47.378Z,49.27
2023-05-19T06:57:45.375Z,50.48
2023-05-19T06:58:45.396Z,48.75
2023-05-19T06:59:45.361Z,48.75
2023-05-19T07:00:45.349Z,49.13
2023-05-19T07:01:45.391Z,49.40
2023-05-19T07:02:45.393Z,49.48
2023-05-19T07:03:45.398Z,47.45
2023-05-19T07:04:45.321Z,46.53
2023-05-19T07:05:45.328Z,46.75
2023-05-19T07:06:45.332Z,46.55
2023-05-19T07:07:45.301Z,46.17
2023-05-19T07:08:45.311Z,48.16
2023-05-19T07:09:45.289Z,47.13
2023-05-19T07:10:45.300Z,45.20
2023-05-19T07:11:45.269Z,46.68
2023-05-19T07:12:46.280Z,45.16
2023-05-19T07:13:45.280Z,46.46
2023-05-19T07:14:45.268Z,44.92
2023-05-19T07:15:45.282Z,43.09
2023-05-19T07:16:45.302Z,43.79
2023-05-19T07:17:45.296Z,42.61
2023-05-19T07:18:45.258Z,41.93
2023-05-19T07:19:45.252Z,43.48
2023-05-19T07:20:45.232Z,43.98
2023-05-19T07:21:45.213Z,45.40
2023-05-19T07:22:45.220Z,44.82
2023-05-19T07:23:45.202Z,44.87
2023-05-19T07:24:45.218Z,46.04
2023-05-19T07:25:45.201Z,46.53
2023-05-19T07:26:45.173Z,46.48
2023-05-19T07:27:46.169Z,44.24
2023-05-19T07:28:45.186Z,44.82
2023-05-19T07:29:45.161Z,42.77
2023-05-19T07:30:45.181Z,43.05
2023-05-19T07:31:45.149Z,43.31
2023-05-19T07:32:45.217Z,41.99
2023-05-19T07:33:45.140Z,40.98
2023-05-19T07:34:45.122Z,41.55
2023-05-19T07:35:45.137Z,41.14
2023-05-19T07:36:45.112Z,39.54
2023-05-19T07:37:45.107Z,40.50
2023-05-19T07:38:45.137Z,40.70
2023-05-19T07:39:45.104Z,39.69
2023-05-19T07:40:45.084Z,39.35
2023-05-19T07:41:45.094Z,40.03
2023-05-19T07:42:45.083Z,38.24
2023-05-19T07:43:45.071Z,37.52
2023-05-19T07:44:45.058Z,38.12
2023-05-19T07:45:45.063Z,37.41
2023-05-19T07:46:45.050Z,37.41
2023-05-19T07:47:45.046Z,38.38
2023-05-19T07:48:45.037Z,37.17
2023-05-19T07:49:45.031Z,37.13
2023-05-19T07:50:45.010Z,36.05
2023-05-19T07:51:45.018Z,35.04
2023-05-19T07:52:44.999Z,35.02
2023-05-19T07:53:45.004Z,34.01
2023-05-19T07:54:45.005Z,33.21
2023-05-19T07:55:44.995Z,32.62
2023-05-19T07:56:44.969Z,32.64
2023-05-19T07:57:44.987Z,34.12
2023-05-19T07:58:45.957Z,34.20
2023-05-19T07:59:44.974Z,33.01
2023-05-19T08:00:44.949Z,32.92
2023-05-19T08:01:44.942Z,32.62
2023-05-19T08:02:45.044Z,33.01
2023-05-19T08:03:45.002Z,34.18
2023-05-19T08:04:44.982Z,33.49
2023-05-19T08:05:44.932Z,31.51
2023-05-19T08:06:44.909Z,32.53
2023-05-19T08:07:44.907Z,32.95
2023-05-19T08:08:44.893Z,33.16
2023-05-19T08:09:44.878Z,33.39
2023-05-19T08:10:44.911Z,32.93
2023-05-19T08:11:44.888Z,33.76
2023-05-19T08:12:44.857Z,36.77
2023-05-19T08:13:44.858Z,36.30
2023-05-19T08:14:44.864Z,36.19
2023-05-19T08:15:44.944Z,36.68
2023-05-19T08:16:44.850Z,36.08
2023-05-19T08:17:44.868Z,37.10
2023-05-19T08:18:44.891Z,36.92
2023-05-19T08:19:44.820Z,38.01
2023-05-19T08:20:44.816Z,36.00
2023-05-19T08:21:44.843Z,36.36
2023-05-19T08:22:44.806Z,37.08
2023-05-19T08:23:44.804Z,36.65
2023-05-19T08:24:44.837Z,35.27
2023-05-19T08:25:44.794Z,35.64
2023-05-19T08:26:44.854Z,36.10
2023-05-19T08:27:44.773Z,33.69
2023-05-19T08:28:44.768Z,32.85
2023-05-19T08:29:44.753Z,32.62
2023-05-19T08:30:44.768Z,32.22
2023-05-19T08:31:44.776Z,31.50
2023-05-19T08:32:44.752Z,32.18
2023-05-19T08:33:44.727Z,32.34
2023-05-19T08:34:44.751Z,30.66
2023-05-19T08:35:44.757Z,30.47
2023-05-19T08:36:44.715Z,30.79
2023-05-19T08:37:44.744Z,31.20
2023-05-19T08:38:44.698Z,31.48
2023-05-19T08:39:44.689Z,31.35
2023-05-19T08:40:44.697Z,31.32
2023-05-19T08:41:44.679Z,29.83
2023-05-19T08:42:44.700Z,30.30
2023-05-19T08:43:44.676Z,28.50
2023-05-19T08:44:44.657Z,29.27
2023-05-19T08:45:44.657Z,28.89
2023-05-19T08:46:44.743Z,28.41
2023-05-19T08:47:44.684Z,29.17
2023-05-19T08:48:44.640Z,28.13
2023-05-19T08:49:44.654Z,28.14
2023-05-19T08:50:44.628Z,29.86
2023-05-19T08:51:44.616Z,30.08
2023-05-19T08:52:46.829Z,30.62
2023-05-19T08:53:44.607Z,33.09
2023-05-19T08:54:44.629Z,36.02
2023-05-19T08:55:44.595Z,34.20
2023-05-19T08:56:44.623Z,33.09
2023-05-19T08:57:44.568Z,34.06
2023-05-19T08:58:44.569Z,34.89
2023-05-19T08:59:44.586Z,37.59
2023-05-19T09:00:44.576Z,35.14
2023-05-19T09:01:44.572Z,33.97
2023-05-19T09:02:55.034Z,33.18
2023-05-19T09:03:46.643Z,34.03
2023-05-19T09:04:44.640Z,35.44
2023-05-19T09:05:44.602Z,34.50
2023-05-19T09:06:44.539Z,34.30
2023-05-19T09:07:44.524Z,35.21
2023-05-19T09:08:44.516Z,33.45
2023-05-19T09:09:44.958Z,36.80
2023-05-19T09:10:44.512Z,37.04
2023-05-19T09:11:44.498Z,37.10
2023-05-19T09:12:44.484Z,36.46
2023-05-19T09:13:44.483Z,35.52
2023-05-19T09:14:44.475Z,36.92
2023-05-19T09:15:44.480Z,35.52
2023-05-19T09:16:44.504Z,36.05
2023-05-19T09:17:44.552Z,36.63
2023-05-19T09:18:44.507Z,39.11
2023-05-19T09:19:44.448Z,40.31
2023-05-19T09:20:44.462Z,39.67
2023-05-19T09:21:44.690Z,40.69
2023-05-19T09:22:45.434Z,41.21
2023-05-19T09:23:44.420Z,41.60
2023-05-19T09:24:44.414Z,42.05
2023-05-19T09:25:44.416Z,41.11
2023-05-19T09:26:44.400Z,39.36
2023-05-19T09:27:45.404Z,39.24
2023-05-19T09:28:44.394Z,39.02
2023-05-19T09:29:44.404Z,38.89
2023-05-19T09:30:44.377Z,38.11
2023-05-19T09:31:44.428Z,36.17
2023-05-19T09:32:44.731Z,36.36
2023-05-19T09:33:46.012Z,35.36
2023-05-19T09:34:45.346Z,34.58
2023-05-19T09:35:44.366Z,36.40
2023-05-19T09:36:44.358Z,34.88
2023-05-19T09:37:44.327Z,34.50
2023-05-19T09:38:44.342Z,34.22
2023-05-19T09:39:44.349Z,34.53
2023-05-19T09:40:44.318Z,32.88
2023-05-19T09:41:44.338Z,31.19
2023-05-19T09:42:44.325Z,31.38
2023-05-19T09:43:44.313Z,31.76
2023-05-19T09:44:44.299Z,32.62
2023-05-19T09:45:44.334Z,32.55
2023-05-19T09:46:44.515Z,32.96
2023-05-19T09:47:44.330Z,33.07
2023-05-19T09:48:44.270Z,33.29
2023-05-19T09:49:44.263Z,34.01
2023-05-19T09:50:44.260Z,34.55
2023-05-19T09:51:44.253Z,35.47
2023-05-19T09:52:44.255Z,36.58
2023-05-19T09:53:44.221Z,36.38
2023-05-19T09:54:44.263Z,38.02
2023-05-19T09:55:44.240Z,34.50
2023-05-19T09:56:44.214Z,33.59
2023-05-19T09:57:44.314Z,34.30
2023-05-19T09:58:44.206Z,34.71
2023-05-19T09:59:44.214Z,34.50
2023-05-19T10:00:44.215Z,34.10
2023-05-19T10:01:44.292Z,34.03
2023-05-19T10:02:44.343Z,34.71
2023-05-19T10:03:44.185Z,34.27
2023-05-19T10:04:44.252Z,33.21
2023-05-19T10:05:44.164Z,34.03
2023-05-19T10:06:44.165Z,32.01
2023-05-19T10:07:44.144Z,31.70
2023-05-19T10:08:44.176Z,30.56
2023-05-19T10:09:44.150Z,29.45
2023-05-19T10:10:44.146Z,29.55
2023-05-19T10:11:44.151Z,27.69
2023-05-19T10:12:44.121Z,27.31
2023-05-19T10:13:44.116Z,27.99
2023-05-19T10:14:44.105Z,26.50
2023-05-19T10:15:57.337Z,27.07
2023-05-19T10:16:46.112Z,26.82
2023-05-19T10:17:44.132Z,26.45
2023-05-19T10:18:44.105Z,28.47
2023-05-19T10:19:44.069Z,30.88
2023-05-19T10:20:44.069Z,31.60
2023-05-19T10:21:44.066Z,34.56
2023-05-19T10:22:44.074Z,32.83
2023-05-19T10:23:44.081Z,31.73
2023-05-19T10:24:44.044Z,31.76
2023-05-19T10:25:44.038Z,32.58
2023-05-19T10:26:44.033Z,33.40
2023-05-19T10:27:44.084Z,32.39
2023-05-19T10:28:44.053Z,34.33
2023-05-19T10:29:44.016Z,34.40
2023-05-19T10:30:44.002Z,35.29
2023-05-19T10:31:45.013Z,35.19
2023-05-19T10:32:44.066Z,35.59
2023-05-19T10:33:44.017Z,34.89
2023-05-19T10:34:43.999Z,34.58
2023-05-19T10:35:45.202Z,34.55
2023-05-19T10:36:43.958Z,32.48
2023-05-19T10:37:44.000Z,31.54
2023-05-19T10:38:43.975Z,30.92
2023-05-19T10:39:43.964Z,31.51
2023-05-19T10:40:43.936Z,30.02
2023-05-19T10:41:45.015Z,30.85
2023-05-19T10:42:43.924Z,30.76
2023-05-19T10:43:43.926Z,31.53
2023-05-19T10:44:43.930Z,31.32
2023-05-19T10:45:43.920Z,30.44
2023-05-19T10:46:43.955Z,31.30
2023-05-19T10:47:43.918Z,30.15
2023-05-19T10:48:43.894Z,31.60
2023-05-19T10:49:43.893Z,30.46
2023-05-19T10:50:43.892Z,32.61
2023-05-19T10:51:43.875Z,32.58
2023-05-19T10:52:43.865Z,32.95
2023-05-19T10:53:43.855Z,31.41
2023-05-19T10:54:43.871Z,31.16
2023-05-19T10:55:43.859Z,29.75
2023-05-19T10:56:43.844Z,28.74
2023-05-19T10:57:43.841Z,29.49
2023-05-19T10:58:43.842Z,28.57
2023-05-19T10:59:43.841Z,27.46
2023-05-19T11:00:43.832Z,27.33
2023-05-19T11:01:43.842Z,27.64
2023-05-19T11:02:43.909Z,27.49
2023-05-19T11:03:43.836Z,27.62
2023-05-19T11:04:43.830Z,27.64
2023-05-19T11:05:43.805Z,28.96
2023-05-19T11:06:43.811Z,28.79
2023-05-19T11:07:43.772Z,30.32
2023-05-19T11:08:43.766Z,30.43
2023-05-19T11:09:43.774Z,30.43
2023-05-19T11:10:43.773Z,31.30
2023-05-19T11:11:43.809Z,30.20
2023-05-19T11:12:43.762Z,30.51
2023-05-19T11:13:43.822Z,30.67
2023-05-19T11:14:43.750Z,32.60
2023-05-19T11:15:43.732Z,33.54
2023-05-19T11:16:43.764Z,32.94
2023-05-19T11:17:43.726Z,34.80
2023-05-19T11:18:43.791Z,34.25
2023-05-19T11:19:43.720Z,34.39
2023-05-19T11:20:43.734Z,31.19
2023-05-19T11:21:43.722Z,29.32
2023-05-19T11:22:43.689Z,29.65
2023-05-19T11:23:43.717Z,31.79
2023-05-19T11:24:43.753Z,34.33
2023-05-19T11:25:43.681Z,34.99
2023-05-19T11:26:43.678Z,36.50
2023-05-19T11:27:43.680Z,36.43
2023-05-19T11:28:43.656Z,35.58
2023-05-19T11:29:43.645Z,32.96
2023-05-19T11:30:43.640Z,32.52
2023-05-19T11:31:43.702Z,32.19
2023-05-19T11:32:43.662Z,31.19
2023-05-19T11:33:43.624Z,30.63
2023-05-19T11:34:43.615Z,31.22
2023-05-19T11:35:43.602Z,30.74
2023-05-19T11:36:43.603Z,31.07
2023-05-19T11:37:43.629Z,32.27
2023-05-19T11:38:43.596Z,32.75
2023-05-19T11:39:43.594Z,31.94
2023-05-19T11:40:43.581Z,32.12
2023-05-19T11:41:43.597Z,31.60
2023-05-19T11:42:43.569Z,31.50
2023-05-19T11:43:43.596Z,30.60
2023-05-19T11:44:43.568Z,30.09
2023-05-19T11:45:43.592Z,30.20
2023-05-19T11:46:43.617Z,30.40
2023-05-19T11:48:00.114Z,31.47
2023-05-19T11:48:45.610Z,29.39
2023-05-19T11:49:43.529Z,30.41
2023-05-19T11:50:43.558Z,30.33
2023-05-19T11:51:43.530Z,30.64
2023-05-19T11:52:43.512Z,30.74
2023-05-19T11:53:43.530Z,30.24
2023-05-19T11:54:43.507Z,29.16
2023-05-19T11:55:43.518Z,31.66
2023-05-19T11:56:43.491Z,30.46
2023-05-19T11:57:49.606Z,31.74
2023-05-19T11:58:45.486Z,31.41
2023-05-19T11:59:43.483Z,30.92
2023-05-19T12:00:43.494Z,29.44
2023-05-19T12:01:43.501Z,31.41
2023-05-19T12:02:43.549Z,31.01
2023-05-19T12:03:43.486Z,30.21
2023-05-19T12:04:43.478Z,30.81
2023-05-19T12:05:44.085Z,30.02
2023-05-19T12:06:43.519Z,29.83
2023-05-19T12:07:43.431Z,29.88
2023-05-19T12:08:43.429Z,30.21
2023-05-19T12:09:43.437Z,32.00
2023-05-19T12:10:43.446Z,31.51
2023-05-19T12:11:43.414Z,32.03
2023-05-19T12:12:43.416Z,31.63
2023-05-19T12:13:43.395Z,32.45
2023-05-19T12:14:43.395Z,32.84
2023-05-19T12:15:43.477Z,32.76
2023-05-19T12:16:43.486Z,32.78
2023-05-19T12:17:43.377Z,32.66
2023-05-19T12:18:43.392Z,33.15
2023-05-19T12:19:43.377Z,34.28
2023-05-19T12:20:43.360Z,34.78
2023-05-19T12:21:43.359Z,34.23
2023-05-19T12:22:43.336Z,32.71
2023-05-19T12:23:43.353Z,32.30
2023-05-19T12:24:43.330Z,31.49
2023-05-19T12:25:43.325Z,31.16
2023-05-19T12:26:43.429Z,30.76
2023-05-19T12:27:43.310Z,30.95
2023-05-19T12:28:43.351Z,31.45
2023-05-19T12:29:43.298Z,31.16
2023-05-19T12:30:43.302Z,30.80
2023-05-19T12:31:43.325Z,30.80
2023-05-19T12:32:43.316Z,32.31
2023-05-19T12:33:43.394Z,32.45
2023-05-19T12:34:43.272Z,32.36
2023-05-19T12:35:43.285Z,32.59
2023-05-19T12:36:43.251Z,32.92
2023-05-19T12:37:44.255Z,33.80
2023-05-19T12:38:43.263Z,35.27
2023-05-19T12:39:43.241Z,34.17
2023-05-19T12:40:43.246Z,33.75
2023-05-19T12:41:43.238Z,33.88
2023-05-19T12:42:43.257Z,34.01
2023-05-19T12:43:43.219Z,35.72
2023-05-19T12:44:43.208Z,36.25
2023-05-19T12:45:43.191Z,37.45
2023-05-19T12:46:43.199Z,35.26
2023-05-19T12:47:43.227Z,35.24
2023-05-19T12:48:43.205Z,36.22
2023-05-19T12:49:43.178Z,35.22
2023-05-19T12:50:43.178Z,34.11
2023-05-19T12:51:43.159Z,34.41
2023-05-19T12:52:43.160Z,35.71